createdAt,value
2023-03-18T00:00:11.319Z,2.70
2023-03-18T00:02:40.292Z,2.63
2023-03-18T00:05:08.757Z,2.77
2023-03-18T00:07:37.243Z,2.50
2023-03-18T00:10:06.578Z,2.50
2023-03-18T00:12:33.458Z,3.13
2023-03-18T00:15:00.754Z,2.90
2023-03-18T00:17:27.523Z,2.90
2023-03-18T00:19:55.107Z,2.70
2023-03-18T00:22:55.329Z,2.50
2023-03-18T00:25:21.897Z,3.03
2023-03-18T00:27:48.455Z,2.77
2023-03-18T00:30:15.135Z,2.90
2023-03-18T00:32:41.820Z,3.60
2023-03-18T00:35:09.344Z,3.00
2023-03-18T00:37:36.501Z,2.80
2023-03-18T00:40:10.178Z,2.90
2023-03-18T00:42:39.311Z,2.80
2023-03-18T00:45:08.209Z,3.63
2023-03-18T00:47:36.551Z,2.90
2023-03-18T00:50:03.515Z,3.03
2023-03-18T00:52:32.298Z,2.70
2023-03-18T00:54:59.969Z,3.10
2023-03-18T00:57:27.940Z,2.67
2023-03-18T00:59:54.622Z,2.50
2023-03-18T01:02:21.315Z,2.83
2023-03-18T01:04:48.000Z,2.77
2023-03-18T01:07:15.327Z,2.67
2023-03-18T01:09:43.499Z,3.00
2023-03-18T01:12:11.273Z,3.00
2023-03-18T01:14:39.845Z,2.60
2023-03-18T01:17:07.988Z,2.90
2023-03-18T01:19:35.283Z,2.97
2023-03-18T01:22:02.855Z,2.93
2023-03-18T01:24:29.508Z,2.53
2023-03-18T01:26:56.795Z,2.80
2023-03-18T01:29:23.655Z,2.70
2023-03-18T01:31:51.214Z,2.70
2023-03-18T01:34:18.727Z,3.23
2023-03-18T01:36:46.258Z,2.80
2023-03-18T01:39:12.918Z,2.93
2023-03-18T01:41:40.176Z,3.17
2023-03-18T01:44:19.112Z,3.23
2023-03-18T01:46:47.408Z,2.57
2023-03-18T01:49:25.627Z,3.33
2023-03-18T01:52:05.303Z,3.00
2023-03-18T01:54:37.700Z,2.93
2023-03-18T01:57:04.508Z,3.10
2023-03-18T01:59:36.076Z,2.60
2023-03-18T02:02:06.648Z,3.30
2023-03-18T02:04:39.345Z,3.50
2023-03-18T02:07:07.785Z,2.90
2023-03-18T02:09:34.561Z,3.30
2023-03-18T02:12:01.967Z,3.37
2023-03-18T02:14:28.597Z,3.57
2023-03-18T02:17:05.902Z,3.50
2023-03-18T02:19:47.637Z,3.40
2023-03-18T02:22:26.420Z,3.93
2023-03-18T02:25:28.085Z,3.50
2023-03-18T02:28:01.535Z,3.30
2023-03-18T02:30:33.915Z,3.03
2023-03-18T02:33:01.513Z,2.90
2023-03-18T02:35:29.663Z,3.50
2023-03-18T02:37:56.317Z,2.70
2023-03-18T02:40:33.669Z,3.70
2023-03-18T02:43:33.553Z,3.17
2023-03-18T02:46:40.839Z,3.13
2023-03-18T02:49:08.507Z,2.97
2023-03-18T02:51:36.875Z,3.40
2023-03-18T02:54:10.884Z,3.60
2023-03-18T02:56:42.188Z,3.20
2023-03-18T02:59:10.572Z,4.10
2023-03-18T03:01:39.121Z,3.60
2023-03-18T03:04:06.872Z,2.80
2023-03-18T03:06:34.460Z,3.43
2023-03-18T03:09:01.206Z,3.83
2023-03-18T03:11:28.719Z,3.57
2023-03-18T03:13:55.369Z,3.30
2023-03-18T03:16:22.022Z,4.80
2023-03-18T03:18:48.672Z,2.90
2023-03-18T03:21:15.414Z,3.57
2023-03-18T03:23:42.632Z,3.47
2023-03-18T03:26:09.400Z,3.43
2023-03-18T03:28:36.356Z,3.20
2023-03-18T03:31:03.730Z,3.60
2023-03-18T03:33:30.508Z,3.20
2023-03-18T03:35:58.102Z,4.13
2023-03-18T03:38:25.922Z,3.87
2023-03-18T03:40:54.184Z,2.97
2023-03-18T03:43:21.130Z,3.20
2023-03-18T03:45:47.751Z,3.23
2023-03-18T03:48:14.353Z,3.00
2023-03-18T03:50:41.280Z,3.00
2023-03-18T03:53:08.071Z,2.83
2023-03-18T03:55:35.404Z,3.33
2023-03-18T03:58:02.425Z,3.77
2023-03-18T04:00:29.485Z,3.60
2023-03-18T04:02:56.739Z,3.23
2023-03-18T04:05:25.657Z,3.10
2023-03-18T04:07:53.897Z,3.37
2023-03-18T04:10:22.499Z,3.00
2023-03-18T04:12:49.664Z,3.00
2023-03-18T04:15:21.801Z,3.47
2023-03-18T04:17:49.852Z,3.50
2023-03-18T04:20:17.373Z,3.40
2023-03-18T04:22:44.954Z,3.50
2023-03-18T04:25:14.672Z,3.60
2023-03-18T04:27:41.693Z,3.60
2023-03-18T04:30:11.242Z,3.70
2023-03-18T04:32:37.886Z,3.63
2023-03-18T04:35:05.382Z,3.67
2023-03-18T04:37:37.061Z,3.40
2023-03-18T04:40:05.715Z,3.60
2023-03-18T04:42:32.345Z,4.00
2023-03-18T04:44:58.976Z,3.93
2023-03-18T04:47:25.915Z,4.50
2023-03-18T04:49:52.558Z,4.63
2023-03-18T04:52:20.122Z,4.20
2023-03-18T04:54:46.765Z,3.70
2023-03-18T04:57:13.435Z,3.40
2023-03-18T04:59:40.035Z,4.10
2023-03-18T05:02:06.587Z,4.60
2023-03-18T05:04:33.671Z,4.80
2023-03-18T05:07:00.710Z,4.00
2023-03-18T05:09:27.357Z,3.43
2023-03-18T05:11:54.228Z,3.97
2023-03-18T05:14:21.214Z,3.90
2023-03-18T05:16:47.879Z,3.93
2023-03-18T05:19:14.535Z,4.20
2023-03-18T05:21:41.634Z,4.00
2023-03-18T05:24:09.927Z,4.03
2023-03-18T05:26:37.403Z,4.80
2023-03-18T05:29:04.117Z,3.90
2023-03-18T05:31:30.752Z,4.13
2023-03-18T05:33:57.717Z,4.77
2023-03-18T05:36:24.325Z,4.40
2023-03-18T05:38:51.155Z,4.87
2023-03-18T05:41:18.177Z,4.60
2023-03-18T05:43:44.751Z,5.27
2023-03-18T05:46:11.669Z,4.93
2023-03-18T05:48:38.420Z,4.47
2023-03-18T05:51:05.910Z,4.90
2023-03-18T05:53:32.543Z,5.13
2023-03-18T05:55:59.777Z,4.67
2023-03-18T05:58:30.971Z,4.40
2023-03-18T06:00:58.858Z,5.27
2023-03-18T06:03:25.814Z,5.50
2023-03-18T06:05:52.852Z,4.70
2023-03-18T06:08:19.506Z,5.00
2023-03-18T06:10:46.074Z,4.60
2023-03-18T06:13:12.657Z,5.70
2023-03-18T06:15:39.251Z,5.40
2023-03-18T06:18:05.876Z,5.90
2023-03-18T06:20:32.467Z,5.53
2023-03-18T06:22:59.788Z,6.30
2023-03-18T06:25:26.740Z,6.10
2023-03-18T06:27:53.342Z,7.37
2023-03-18T06:30:20.006Z,6.90
2023-03-18T06:32:47.090Z,8.50
2023-03-18T06:35:15.445Z,8.30
2023-03-18T06:37:42.674Z,9.00
2023-03-18T06:40:10.548Z,9.67
2023-03-18T06:42:37.529Z,11.60
2023-03-18T06:45:04.569Z,10.20
2023-03-18T06:47:31.236Z,11.30
2023-03-18T06:49:57.934Z,10.20
2023-03-18T06:52:24.584Z,9.90
2023-03-18T06:54:51.854Z,9.43
2023-03-18T06:57:18.660Z,9.10
2023-03-18T06:59:45.621Z,8.90
2023-03-18T07:02:12.607Z,7.67
2023-03-18T07:04:39.577Z,7.07
2023-03-18T07:07:06.536Z,6.70
2023-03-18T07:09:33.546Z,6.80
2023-03-18T07:12:00.895Z,6.77
2023-03-18T07:14:28.351Z,7.10
2023-03-18T07:16:55.976Z,6.27
2023-03-18T07:19:22.811Z,6.40
2023-03-18T07:21:49.453Z,6.63
2023-03-18T07:24:17.157Z,6.80
2023-03-18T07:26:43.912Z,6.47
2023-03-18T07:29:10.525Z,5.77
2023-03-18T07:31:37.151Z,5.40
2023-03-18T07:34:04.767Z,6.20
2023-03-18T07:36:31.752Z,5.70
2023-03-18T07:38:59.826Z,7.00
2023-03-18T07:41:26.552Z,5.03
2023-03-18T07:43:53.549Z,4.70
2023-03-18T07:46:20.347Z,5.57
2023-03-18T07:48:47.889Z,5.00
2023-03-18T07:51:15.462Z,5.20
2023-03-18T07:53:42.816Z,5.47
2023-03-18T07:56:12.497Z,4.80
2023-03-18T07:58:39.236Z,4.97
2023-03-18T08:01:06.039Z,5.50
2023-03-18T08:03:32.655Z,4.90
2023-03-18T08:05:59.420Z,4.93
2023-03-18T08:08:26.050Z,4.93
2023-03-18T08:10:57.046Z,4.93
2023-03-18T08:13:24.146Z,4.70
2023-03-18T08:15:50.681Z,4.73
2023-03-18T08:18:17.251Z,5.03
2023-03-18T08:20:44.478Z,5.37
2023-03-18T08:23:11.470Z,5.37
2023-03-18T08:25:38.364Z,6.03
2023-03-18T08:28:07.467Z,5.30
2023-03-18T08:30:34.953Z,6.00
2023-03-18T08:33:02.850Z,4.53
2023-03-18T08:35:29.529Z,4.57
2023-03-18T08:37:57.011Z,4.30
2023-03-18T08:40:24.298Z,4.67
2023-03-18T08:42:50.851Z,4.43
2023-03-18T08:45:17.787Z,4.67
2023-03-18T08:47:44.359Z,4.10
2023-03-18T08:50:12.021Z,4.40
2023-03-18T08:52:39.671Z,4.77
2023-03-18T08:55:07.530Z,5.67
2023-03-18T08:57:34.676Z,5.17
2023-03-18T09:00:01.687Z,5.50
2023-03-18T09:02:28.530Z,4.63
2023-03-18T09:04:55.766Z,5.17
2023-03-18T09:07:22.367Z,4.50
2023-03-18T09:09:48.980Z,4.17
2023-03-18T09:12:15.712Z,4.50
2023-03-18T09:14:43.540Z,3.50
2023-03-18T09:17:10.165Z,3.83
2023-03-18T09:19:37.344Z,4.20
2023-03-18T09:22:04.427Z,4.03
2023-03-18T09:24:31.615Z,4.17
2023-03-18T09:26:59.699Z,3.73
2023-03-18T09:29:27.448Z,4.10
2023-03-18T09:31:54.197Z,4.10
2023-03-18T09:34:20.916Z,3.93
2023-03-18T09:36:50.978Z,3.47
2023-03-18T09:39:21.697Z,3.40
2023-03-18T09:42:13.401Z,3.40
2023-03-18T09:44:40.482Z,2.80
2023-03-18T09:47:13.070Z,3.40
2023-03-18T09:49:48.329Z,3.10
2023-03-18T09:52:36.696Z,2.53
2023-03-18T09:55:28.741Z,2.93
2023-03-18T09:58:01.517Z,2.27
2023-03-18T10:00:32.059Z,2.70
2023-03-18T10:03:24.834Z,3.17
2023-03-18T10:05:53.014Z,3.50
2023-03-18T10:08:52.726Z,3.77
2023-03-18T10:11:42.535Z,3.97
2023-03-18T10:14:09.069Z,2.90
2023-03-18T10:16:51.736Z,2.73
2023-03-18T10:19:19.754Z,3.50
2023-03-18T10:22:10.521Z,2.73
2023-03-18T10:24:52.813Z,3.57
2023-03-18T10:27:23.051Z,2.80
2023-03-18T10:30:04.227Z,3.23
2023-03-18T10:33:03.815Z,3.60
2023-03-18T10:35:53.048Z,4.07
2023-03-18T10:38:34.128Z,3.23
2023-03-18T10:41:01.730Z,3.10
2023-03-18T10:43:32.616Z,4.50
2023-03-18T10:46:05.886Z,5.17
2023-03-18T10:49:00.762Z,3.93
2023-03-18T10:51:32.670Z,3.53
2023-03-18T10:54:16.745Z,3.20
2023-03-18T10:56:43.621Z,4.00
2023-03-18T10:59:18.678Z,3.23
2023-03-18T11:02:06.132Z,3.00
2023-03-18T11:04:44.619Z,3.40
2023-03-18T11:07:21.525Z,3.80
2023-03-18T11:09:48.083Z,3.13
2023-03-18T11:12:29.007Z,3.60
2023-03-18T11:14:56.303Z,3.43
2023-03-18T11:17:35.725Z,3.87
2023-03-18T11:20:19.488Z,3.60
2023-03-18T11:22:48.877Z,3.40
2023-03-18T11:25:17.904Z,3.00
2023-03-18T11:27:53.656Z,3.40
2023-03-18T11:30:36.332Z,5.13
2023-03-18T11:33:14.601Z,3.40
2023-03-18T11:35:51.970Z,3.63
2023-03-18T11:38:28.570Z,3.60
2023-03-18T11:41:11.263Z,3.00
2023-03-18T11:43:38.594Z,2.67
2023-03-18T11:46:08.649Z,2.43
2023-03-18T11:48:40.286Z,2.23
2023-03-18T11:51:28.548Z,2.40
2023-03-18T11:54:30.856Z,2.37
2023-03-18T11:57:08.653Z,3.20
2023-03-18T11:59:57.823Z,2.80
2023-03-18T12:02:38.067Z,2.20
2023-03-18T12:05:21.379Z,2.57
2023-03-18T12:07:56.948Z,2.37
2023-03-18T12:10:36.185Z,2.20
2023-03-18T12:13:26.966Z,2.37
2023-03-18T12:15:54.597Z,2.17
2023-03-18T12:18:52.935Z,2.10
2023-03-18T12:21:48.877Z,2.50
2023-03-18T12:24:52.400Z,2.83
2023-03-18T12:27:34.819Z,2.30
2023-03-18T12:30:19.004Z,2.40
2023-03-18T12:33:06.229Z,2.40
2023-03-18T12:35:48.487Z,2.43
2023-03-18T12:38:24.211Z,2.13
2023-03-18T12:40:50.808Z,2.40
2023-03-18T12:43:53.372Z,2.27
2023-03-18T12:46:35.968Z,2.50
2023-03-18T12:49:14.574Z,2.23
2023-03-18T12:52:09.475Z,2.20
2023-03-18T12:55:07.553Z,1.80
2023-03-18T12:57:44.118Z,1.80
2023-03-18T13:00:16.638Z,2.00
2023-03-18T13:02:59.082Z,1.53
2023-03-18T13:05:40.743Z,2.23
2023-03-18T13:08:14.519Z,1.83
2023-03-18T13:10:43.777Z,2.00
2023-03-18T13:13:12.327Z,2.73
2023-03-18T13:15:53.636Z,1.67
2023-03-18T13:18:31.675Z,2.30
2023-03-18T13:20:59.478Z,1.93
2023-03-18T13:23:38.451Z,1.80
2023-03-18T13:26:26.919Z,1.90
2023-03-18T13:29:00.376Z,1.60
2023-03-18T13:31:43.296Z,1.90
2023-03-18T13:34:41.900Z,1.80
2023-03-18T13:37:08.472Z,1.83
2023-03-18T13:40:03.758Z,2.63
2023-03-18T13:42:36.068Z,1.83
2023-03-18T13:45:08.858Z,1.83
2023-03-18T13:47:38.112Z,2.43
2023-03-18T13:50:34.528Z,1.60
2023-03-18T13:53:02.853Z,1.53
2023-03-18T13:55:39.687Z,1.37
2023-03-18T13:58:17.808Z,1.60
2023-03-18T14:01:07.510Z,1.50
2023-03-18T14:03:44.339Z,1.37
2023-03-18T14:06:10.978Z,1.53
2023-03-18T14:08:43.110Z,1.57
2023-03-18T14:11:25.792Z,1.73
2023-03-18T14:13:53.409Z,1.57
2023-03-18T14:16:30.508Z,1.43
2023-03-18T14:18:58.177Z,1.60
2023-03-18T14:21:30.939Z,1.50
2023-03-18T14:24:17.041Z,1.70
2023-03-18T14:26:58.321Z,1.60
2023-03-18T14:29:30.735Z,1.70
2023-03-18T14:32:00.094Z,1.80
2023-03-18T14:34:34.638Z,1.40
2023-03-18T14:37:19.980Z,1.50
2023-03-18T14:39:51.407Z,1.57
2023-03-18T14:42:58.419Z,1.70
2023-03-18T14:45:34.412Z,1.60
2023-03-18T14:48:14.577Z,1.90
2023-03-18T14:50:45.877Z,2.00
2023-03-18T14:53:17.836Z,2.30
2023-03-18T14:55:44.939Z,2.80
2023-03-18T14:58:17.396Z,2.80
2023-03-18T15:00:45.517Z,2.63
2023-03-18T15:03:32.330Z,3.93
2023-03-18T15:06:05.758Z,3.97
2023-03-18T15:08:47.240Z,4.30
2023-03-18T15:11:16.257Z,3.30
2023-03-18T15:13:42.948Z,3.07
2023-03-18T15:16:13.529Z,3.17
2023-03-18T15:18:40.362Z,3.23
2023-03-18T15:21:26.193Z,2.97
2023-03-18T15:23:57.287Z,8.03
2023-03-18T15:26:38.676Z,3.53
2023-03-18T15:29:31.365Z,2.63
2023-03-18T15:32:20.350Z,3.47
2023-03-18T15:34:53.687Z,2.57
2023-03-18T15:37:40.076Z,2.97
2023-03-18T15:40:33.130Z,2.77
2023-03-18T15:43:19.049Z,2.30
2023-03-18T15:45:52.110Z,2.63
2023-03-18T15:48:30.692Z,2.10
2023-03-18T15:51:00.561Z,2.10
2023-03-18T15:53:33.318Z,2.33
2023-03-18T15:56:13.744Z,1.80
2023-03-18T15:58:40.435Z,2.10
2023-03-18T16:01:07.976Z,2.50
2023-03-18T16:03:35.412Z,2.60
2023-03-18T16:06:03.105Z,2.93
2023-03-18T16:08:30.429Z,3.10
2023-03-18T16:11:01.067Z,3.77
2023-03-18T16:13:34.273Z,2.80
2023-03-18T16:16:01.103Z,2.83
2023-03-18T16:18:27.699Z,3.03
2023-03-18T16:20:54.410Z,3.33
2023-03-18T16:23:21.769Z,3.20
2023-03-18T16:25:51.025Z,3.37
2023-03-18T16:28:28.145Z,3.93
2023-03-18T16:30:56.130Z,4.00
2023-03-18T16:33:23.673Z,3.53
2023-03-18T16:35:58.952Z,3.53
2023-03-18T16:38:26.614Z,4.20
2023-03-18T16:40:54.846Z,3.90
2023-03-18T16:43:24.166Z,4.33
2023-03-18T16:45:51.488Z,3.30
2023-03-18T16:48:21.201Z,3.67
2023-03-18T16:50:50.542Z,4.00
2023-03-18T16:53:22.238Z,3.87
2023-03-18T16:55:56.468Z,5.33
2023-03-18T16:58:28.934Z,4.93
2023-03-18T17:00:55.591Z,4.30
2023-03-18T17:03:22.690Z,4.53
2023-03-18T17:05:50.549Z,5.80
2023-03-18T17:08:18.853Z,6.50
2023-03-18T17:10:46.736Z,7.70
2023-03-18T17:13:18.796Z,8.33
2023-03-18T17:15:45.708Z,9.83
2023-03-18T17:18:15.004Z,8.60
2023-03-18T17:20:42.229Z,7.50
2023-03-18T17:23:14.678Z,7.30
2023-03-18T17:25:44.591Z,7.47
2023-03-18T17:28:16.697Z,7.00
2023-03-18T17:30:43.396Z,8.07
2023-03-18T17:33:28.967Z,7.57
2023-03-18T17:35:56.349Z,7.50
2023-03-18T17:38:23.395Z,7.80
2023-03-18T17:40:50.590Z,8.57
2023-03-18T17:43:29.466Z,9.03
2023-03-18T17:45:57.392Z,8.20
2023-03-18T17:48:28.837Z,9.13
2023-03-18T17:50:58.413Z,7.60
2023-03-18T17:53:37.204Z,8.43
2023-03-18T17:56:05.616Z,7.67
2023-03-18T17:58:33.429Z,7.77
2023-03-18T18:01:07.523Z,8.23
2023-03-18T18:03:36.713Z,9.10
2023-03-18T18:06:03.553Z,9.23
2023-03-18T18:08:31.646Z,10.00
2023-03-18T18:11:04.362Z,11.30
2023-03-18T18:13:31.101Z,10.00
2023-03-18T18:16:00.899Z,9.13
2023-03-18T18:18:29.067Z,10.90
2023-03-18T18:21:04.389Z,10.00
2023-03-18T18:23:37.057Z,9.90
2023-03-18T18:26:07.338Z,9.40
2023-03-18T18:28:39.251Z,14.20
2023-03-18T18:31:09.142Z,15.93
2023-03-18T18:33:37.341Z,14.00
2023-03-18T18:36:04.771Z,11.37
2023-03-18T18:38:31.382Z,10.37
2023-03-18T18:40:58.860Z,10.10
2023-03-18T18:43:26.243Z,10.40
2023-03-18T18:45:54.868Z,9.80
2023-03-18T18:48:37.755Z,10.00
2023-03-18T18:51:04.937Z,10.03
2023-03-18T18:53:36.547Z,9.07
2023-03-18T18:56:19.757Z,8.53
2023-03-18T18:58:47.672Z,10.10
2023-03-18T19:01:14.979Z,10.10
2023-03-18T19:03:41.776Z,10.50
2023-03-18T19:06:25.783Z,11.83
2023-03-18T19:08:57.703Z,12.90
2023-03-18T19:11:25.392Z,12.00
2023-03-18T19:13:53.126Z,12.03
2023-03-18T19:16:22.733Z,11.63
2023-03-18T19:18:49.355Z,12.27
2023-03-18T19:21:16.437Z,12.20
2023-03-18T19:23:43.051Z,11.13
2023-03-18T19:26:15.946Z,12.30
2023-03-18T19:28:56.875Z,11.83
2023-03-18T19:31:26.947Z,10.87
2023-03-18T19:33:54.138Z,11.13
2023-03-18T19:36:35.061Z,10.20
2023-03-18T19:39:02.625Z,9.40
2023-03-18T19:41:29.918Z,9.93
2023-03-18T19:44:07.188Z,9.60
2023-03-18T19:46:39.043Z,9.90
2023-03-18T19:49:13.917Z,8.90
2023-03-18T19:51:41.413Z,9.20
2023-03-18T19:54:22.665Z,9.10
2023-03-18T19:56:49.880Z,9.30
2023-03-18T19:59:24.466Z,9.97
2023-03-18T20:01:51.415Z,10.47
2023-03-18T20:04:19.675Z,10.60
2023-03-18T20:06:47.386Z,10.67
2023-03-18T20:09:14.930Z,10.07
2023-03-18T20:11:42.494Z,10.80
2023-03-18T20:14:24.693Z,10.40
2023-03-18T20:16:53.027Z,10.70
2023-03-18T20:19:20.765Z,9.83
2023-03-18T20:21:49.398Z,11.90
2023-03-18T20:24:18.622Z,13.70
2023-03-18T20:26:46.180Z,14.13
2023-03-18T20:29:19.206Z,15.43
2023-03-18T20:31:47.190Z,14.50
2023-03-18T20:34:14.191Z,14.00
2023-03-18T20:36:42.265Z,14.90
2023-03-18T20:39:19.669Z,14.53
2023-03-18T20:41:47.009Z,14.47
2023-03-18T20:44:14.544Z,14.43
2023-03-18T20:46:43.148Z,13.93
2023-03-18T20:49:10.591Z,14.63
2023-03-18T20:51:40.718Z,15.03
2023-03-18T20:54:27.420Z,15.17
2023-03-18T20:56:53.974Z,14.67
2023-03-18T20:59:20.802Z,14.10
2023-03-18T21:01:47.843Z,14.73
2023-03-18T21:04:14.568Z,13.83
2023-03-18T21:06:42.089Z,15.83
2023-03-18T21:09:10.149Z,14.97
2023-03-18T21:11:37.188Z,15.00
2023-03-18T21:14:07.030Z,14.27
2023-03-18T21:16:37.198Z,14.97
2023-03-18T21:19:04.293Z,14.90
2023-03-18T21:21:38.524Z,13.87
2023-03-18T21:24:32.350Z,15.20
2023-03-18T21:27:04.642Z,14.40
2023-03-18T21:29:32.868Z,13.90
2023-03-18T21:31:59.905Z,15.07
2023-03-18T21:34:26.608Z,14.13
2023-03-18T21:36:53.133Z,12.57
2023-03-18T21:39:20.893Z,13.23
2023-03-18T21:41:47.630Z,12.83
2023-03-18T21:44:14.201Z,11.47
2023-03-18T21:46:40.838Z,11.33
2023-03-18T21:49:07.476Z,10.80
2023-03-18T21:51:39.550Z,10.93
2023-03-18T21:54:16.536Z,10.37
2023-03-18T21:56:43.182Z,11.07
2023-03-18T21:59:09.766Z,10.73
2023-03-18T22:01:36.437Z,11.23
2023-03-18T22:04:03.653Z,11.60
2023-03-18T22:06:32.666Z,10.40
2023-03-18T22:08:59.218Z,10.83
2023-03-18T22:11:26.090Z,10.10
2023-03-18T22:13:53.897Z,10.20
2023-03-18T22:16:20.662Z,10.60
2023-03-18T22:18:47.553Z,9.80
2023-03-18T22:21:24.904Z,13.00
2023-03-18T22:23:51.921Z,16.00
2023-03-18T22:26:19.841Z,16.90
2023-03-18T22:28:46.885Z,13.17
2023-03-18T22:31:27.065Z,16.80
2023-03-18T22:33:54.347Z,15.57
2023-03-18T22:36:27.353Z,13.80
2023-03-18T22:38:53.967Z,13.43
2023-03-18T22:41:31.015Z,10.90
2023-03-18T22:44:00.008Z,11.47
2023-03-18T22:46:28.207Z,10.00
2023-03-18T22:48:54.894Z,9.70
2023-03-18T22:51:28.891Z,10.07
2023-03-18T22:53:56.153Z,8.70
2023-03-18T22:56:23.198Z,9.57
2023-03-18T22:58:50.338Z,9.23
2023-03-18T23:01:26.366Z,8.80
2023-03-18T23:03:53.044Z,8.83
2023-03-18T23:06:23.846Z,8.63
2023-03-18T23:08:50.718Z,9.87
2023-03-18T23:11:17.533Z,10.63
2023-03-18T23:13:47.563Z,11.73
2023-03-18T23:16:17.080Z,11.80
2023-03-18T23:18:44.274Z,13.37
2023-03-18T23:21:16.771Z,12.30
2023-03-18T23:23:43.405Z,13.37
2023-03-18T23:26:10.023Z,12.40
2023-03-18T23:28:44.344Z,12.10
2023-03-18T23:31:11.780Z,12.30
2023-03-18T23:33:38.631Z,12.23
2023-03-18T23:36:05.580Z,11.80
2023-03-18T23:38:32.347Z,12.17
2023-03-18T23:40:58.941Z,11.87
2023-03-18T23:43:25.857Z,11.80
2023-03-18T23:45:54.845Z,11.23
2023-03-18T23:48:21.466Z,11.97
2023-03-18T23:50:48.051Z,11.87
2023-03-18T23:53:14.626Z,12.00
2023-03-18T23:55:41.380Z,12.47
2023-03-18T23:58:07.995Z,12.33
